Time;durP1;ratioP1;P1;durP2;ratioP2;P2;SDS_P1;SDS_P2;PMS_P1;PMS_P2;Temp;Humidity;BMP_temperature;BMP_pressure;BME280_temperature;BME280_humidity;BME280_pressure;Samples;Min_cycle;Max_cycle;Signal;HPM_P1;HPM_P2
2021/01/22 00:13:26;;;;;;;8.77;5.17;;;;;;;19.03;36.95;98649.25;31424037;28;20291;-66
2021/01/22 00:28:27;;;;;;;9.53;4.90;;;;;;;18.99;36.80;98592.72;31424693;28;20309;-66
2021/01/22 00:43:29;;;;;;;7.93;5.27;;;;;;;18.93;37.34;98567.13;31421344;28;20303;-65
2021/01/22 00:58:29;;;;;;;6.75;5.18;;;;;;;18.86;37.16;98547.81;31408662;28;20295;-65
2021/01/22 01:13:30;;;;;;;7.47;4.83;;;;;;;18.80;37.82;98541.44;31413069;28;20048;-66
2021/01/22 01:28:31;;;;;;;7.20;4.23;;;;;;;18.74;37.69;98532.44;31412152;28;20292;-66
2021/01/22 01:43:32;;;;;;;6.73;4.13;;;;;;;18.73;37.68;98504.47;31408537;28;20298;-66
2021/01/22 01:58:33;;;;;;;5.90;4.23;;;;;;;18.72;37.87;98488.88;31408857;28;20286;-66
2021/01/22 02:13:35;;;;;;;6.53;4.13;;;;;;;18.65;38.02;98490.63;31374233;28;20303;-66
2021/01/22 02:28:35;;;;;;;5.18;3.92;;;;;;;18.63;37.97;98446.88;31418376;28;20299;-66
2021/01/22 02:43:39;;;;;;;4.77;3.20;;;;;;;18.56;38.01;98437.28;31419160;28;20035;-66
2021/01/22 02:58:44;;;;;;;4.93;3.65;;;;;;;18.56;38.25;98424.94;31435339;28;20306;-66
2021/01/22 03:13:45;;;;;;;7.07;3.83;;;;;;;18.58;38.09;98407.16;31424640;28;20118;-66
2021/01/22 03:28:46;;;;;;;5.13;3.28;;;;;;;18.62;37.91;98407.59;31457570;28;20039;-66
2021/01/22 03:43:47;;;;;;;4.68;3.25;;;;;;;18.54;38.16;98392.72;31436012;28;20434;-66
2021/01/22 03:58:48;;;;;;;4.80;3.20;;;;;;;18.52;38.18;98378.94;31409041;28;20035;-66
2021/01/22 04:13:49;;;;;;;5.10;3.13;;;;;;;18.53;37.96;98356.91;31403918;28;20303;-66
2021/01/22 04:28:56;;;;;;;4.80;2.67;;;;;;;18.47;38.09;98328.72;31415178;28;20309;-66
2021/01/22 04:43:57;;;;;;;4.10;2.50;;;;;;;18.42;38.16;98312.69;31437069;28;20291;-66
2021/01/22 04:58:59;;;;;;;3.90;2.40;;;;;;;18.41;38.35;98293.44;31451285;28;20434;-66
2021/01/22 05:14:01;;;;;;;3.95;2.60;;;;;;;18.40;38.10;98278.66;31421321;28;20033;-66
2021/01/22 05:29:04;;;;;;;4.00;2.35;;;;;;;18.38;38.19;98250.94;31461098;28;20049;-66
2021/01/22 05:44:05;;;;;;;3.85;2.15;;;;;;;18.37;38.17;98252.75;31372042;28;20044;-66
2021/01/22 05:59:15;;;;;;;3.35;2.08;;;;;;;18.35;37.81;98256.56;31387398;28;20041;-65
2021/01/22 06:14:16;;;;;;;4.20;2.13;;;;;;;18.35;38.05;98241.59;31419800;28;20037;-65
2021/01/22 06:29:17;;;;;;;3.23;2.10;;;;;;;18.29;38.19;98242.34;31453449;28;20498;-65
2021/01/22 06:44:18;;;;;;;1.80;0.90;;;;;;;18.39;32.96;98239.41;31402196;28;20307;-66
2021/01/22 06:59:23;;;;;;;2.00;0.88;;;;;;;16.43;36.08;98248.38;31399990;28;20303;-66
2021/01/22 07:14:39;;;;;;;2.60;0.90;;;;;;;15.66;37.93;98253.50;31383766;28;20037;-66
2021/01/22 07:29:40;;;;;;;3.00;1.00;;;;;;;15.78;40.31;98256.59;31392606;28;20060;-68
2021/01/22 07:44:42;;;;;;;3.03;1.25;;;;;;;16.92;38.68;98276.06;31357546;28;20024;-65
2021/01/22 07:59:43;;;;;;;3.00;1.00;;;;;;;17.63;37.31;98268.63;31341637;28;20025;-66
2021/01/22 08:14:44;;;;;;;2.70;1.13;;;;;;;18.06;37.79;98292.44;31364373;28;20025;-67
2021/01/22 08:29:45;;;;;;;3.83;1.10;;;;;;;18.40;37.23;98315.50;31377898;28;20032;-68
2021/01/22 08:44:59;;;;;;;2.15;0.90;;;;;;;18.66;37.50;98414.13;31334052;28;20820;-66
2021/01/22 09:00:00;;;;;;;2.67;1.08;;;;;;;18.98;37.34;98473.41;31380979;28;20041;-67
2021/01/22 09:15:05;;;;;;;3.27;1.23;;;;;;;19.14;36.92;98497.91;31348862;28;20145;-65
2021/01/22 09:30:11;;;;;;;2.67;1.20;;;;;;;19.19;37.32;98532.38;31366120;28;20284;-67
2021/01/22 09:45:12;;;;;;;57.40;48.63;;;;;;;19.10;36.01;98551.94;31351277;28;20029;-65
2021/01/22 10:00:17;;;;;;;7.07;4.28;;;;;;;19.05;38.18;98563.81;31349779;28;20387;-68
2021/01/22 10:15:18;;;;;;;6.75;4.13;;;;;;;19.14;37.85;98590.06;31365156;28;20090;-67
2021/01/22 10:30:19;;;;;;;5.77;3.77;;;;;;;19.21;38.09;98615.47;31320207;28;20017;-68
2021/01/22 10:45:20;;;;;;;5.63;3.88;;;;;;;19.32;37.92;98632.63;31346815;28;20291;-68
2021/01/22 11:00:21;;;;;;;124.40;88.20;;;;;;;19.31;35.75;98641.53;31401416;28;20055;-64
2021/01/22 11:15:22;;;;;;;18.90;13.57;;;;;;;19.67;36.88;98661.81;31394344;28;20295;-65
2021/01/22 11:30:23;;;;;;;16.60;11.60;;;;;;;19.98;36.37;98661.56;31371538;28;20083;-66
2021/01/22 11:45:24;;;;;;;13.50;10.23;;;;;;;20.08;36.15;98654.16;31357020;28;20037;-64
2021/01/22 12:00:25;;;;;;;14.57;10.50;;;;;;;20.15;36.14;98641.03;31386478;28;20279;-66
2021/01/22 12:15:26;;;;;;;7.80;5.90;;;;;;;20.09;35.11;98650.53;31420874;28;20295;-68
2021/01/22 12:30:27;;;;;;;9.00;6.77;;;;;;;19.90;35.94;98656.41;31376066;28;20491;-66
2021/01/22 12:45:28;;;;;;;8.93;6.57;;;;;;;19.84;35.63;98678.28;31391501;28;20345;-66
2021/01/22 13:00:29;;;;;;;10.75;7.03;;;;;;;20.00;37.41;98680.66;31364591;28;20041;-64
2021/01/22 13:15:30;;;;;;;10.83;9.40;;;;;;;20.15;37.19;98701.69;31373802;28;20048;-65
2021/01/22 13:30:31;;;;;;;11.47;8.13;;;;;;;20.36;36.71;98703.50;31346070;28;20294;-69
2021/01/22 13:45:32;;;;;;;10.47;7.80;;;;;;;20.48;36.66;98707.31;31302239;28;20326;-66
2021/01/22 14:00:33;;;;;;;10.13;8.00;;;;;;;20.49;37.09;98737.13;31369786;28;20303;-66
2021/01/22 14:15:34;;;;;;;10.17;7.60;;;;;;;20.50;37.82;98738.75;31360016;28;20334;-65
2021/01/22 14:30:35;;;;;;;10.65;7.80;;;;;;;20.57;37.63;98765.25;31393702;28;20291;-65
2021/01/22 14:45:36;;;;;;;9.10;6.97;;;;;;;20.53;37.13;98799.09;31393367;28;20432;-66
2021/01/22 15:00:37;;;;;;;9.27;7.07;;;;;;;20.56;37.27;98804.03;31420301;28;20291;-66
2021/01/22 15:15:38;;;;;;;8.57;6.38;;;;;;;20.53;37.49;98824.69;31359415;28;20318;-65
2021/01/22 15:30:39;;;;;;;2.20;0.80;;;;;;;17.80;27.90;98845.53;31351553;28;20033;-62
2021/01/22 15:45:40;;;;;;;4.87;2.43;;;;;;;16.57;33.94;98862.28;31383827;28;20318;-64
2021/01/22 16:00:41;;;;;;;4.43;3.03;;;;;;;18.33;35.09;98874.78;31349348;28;20300;-66
2021/01/22 16:15:42;;;;;;;4.47;3.00;;;;;;;19.31;34.37;98877.75;31350773;28;20665;-67
2021/01/22 16:30:43;;;;;;;4.67;3.10;;;;;;;19.82;34.55;98901.72;31373995;28;20287;-67
2021/01/22 16:45:44;;;;;;;4.38;2.67;;;;;;;20.05;34.54;98917.44;31339056;28;20842;-67
2021/01/22 17:00:45;;;;;;;4.72;3.05;;;;;;;20.16;34.83;98940.72;31363104;28;20037;-66
2021/01/22 17:15:46;;;;;;;4.90;3.17;;;;;;;20.21;35.34;98959.47;31346096;28;20041;-67
2021/01/22 17:30:47;;;;;;;4.13;2.83;;;;;;;20.38;35.33;98975.09;31363719;28;20283;-56
2021/01/22 17:45:48;;;;;;;6.43;4.00;;;;;;;20.27;34.75;98985.13;31360516;28;20301;-58
2021/01/22 18:00:49;;;;;;;5.63;3.70;;;;;;;20.54;34.45;99016.31;31356275;28;20295;-59
2021/01/22 18:15:50;;;;;;;5.03;3.60;;;;;;;20.71;34.34;99045.03;31358225;28;20304;-55
2021/01/22 18:30:51;;;;;;;6.93;3.85;;;;;;;20.82;34.16;99056.13;31337103;28;20356;-58
2021/01/22 18:45:52;;;;;;;8.00;3.97;;;;;;;20.80;34.11;99061.59;31337562;28;20036;-59
2021/01/22 19:00:53;;;;;;;8.73;3.97;;;;;;;20.78;34.22;99087.38;31347121;28;20294;-59
2021/01/22 19:15:54;;;;;;;8.33;4.83;;;;;;;20.77;34.39;99106.00;31366039;28;20303;-57
2021/01/22 19:30:56;;;;;;;6.33;4.57;;;;;;;20.70;34.14;99106.72;31386187;28;20354;-60
2021/01/22 19:45:57;;;;;;;6.18;3.40;;;;;;;17.74;28.62;99127.38;31362778;28;20373;-61
2021/01/22 20:00:58;;;;;;;7.27;4.67;;;;;;;18.60;36.15;99141.06;31378485;28;20482;-61
2021/01/22 20:15:59;;;;;;;9.33;5.30;;;;;;;19.80;35.06;99135.69;31377196;28;20306;-60
2021/01/22 20:31:00;;;;;;;7.43;4.60;;;;;;;20.39;34.67;99122.69;31380629;28;20280;-61
2021/01/22 20:46:01;;;;;;;9.30;6.68;;;;;;;20.49;32.46;99138.28;31357358;28;20033;-59
2021/01/22 21:01:02;;;;;;;9.37;5.50;;;;;;;20.54;34.57;99154.38;31378349;28;20399;-59
2021/01/22 21:16:04;;;;;;;11.80;6.07;;;;;;;20.62;34.84;99164.09;31365947;28;20307;-60
2021/01/22 21:31:05;;;;;;;8.52;6.45;;;;;;;20.71;34.21;99163.84;31342769;28;20044;-60
2021/01/22 21:46:06;;;;;;;7.95;5.78;;;;;;;20.81;34.54;99189.16;31372714;28;20059;-58
2021/01/22 22:01:07;;;;;;;8.10;5.63;;;;;;;20.95;34.79;99192.81;31368508;28;20024;-58
2021/01/22 22:16:08;;;;;;;9.33;7.00;;;;;;;21.01;34.38;99213.22;31348447;28;20286;-58
2021/01/22 22:31:09;;;;;;;9.70;6.60;;;;;;;21.01;35.88;99211.41;31393902;28;20282;-58
2021/01/22 22:46:10;;;;;;;12.00;7.93;;;;;;;20.85;32.84;99193.09;31380531;28;20295;-64
2021/01/22 23:01:11;;;;;;;6.50;4.77;;;;;;;16.17;31.16;99175.72;31421155;28;20031;-56
2021/01/22 23:16:12;;;;;;;9.88;7.05;;;;;;;17.70;34.97;99149.69;31392222;28;20296;-60
2021/01/22 23:31:13;;;;;;;9.20;6.70;;;;;;;18.60;34.11;99198.97;31308448;28;20040;-57
2021/01/22 23:46:14;;;;;;;9.13;6.90;;;;;;;19.00;34.07;99195.44;31341216;28;20300;-56
